Pindi Bhattian Weather



Pindi Bhattian's Current Weather

Temprature 32.042o clear sky

clear sky

Rain: 0 %

Min Temprature32.042o
Max Temprature32.042o
Humidity23
Wind Speed3.81 m/h
Sun Rise06:11:47
Sun Set17:32:15
Current Time: 18-Oct-2019 16:58:54
Lat/Lon: 31.9, 73.27




Pindi Bhattian's Geo Location



Pindi Bhattian's Weather Forecast

Time Overall Temp Min Temp Max Temp Humidity Wind Speed Rain
18-Oct-2019 (Fri)
17:00:00 clear sky 30.410 30.410 32.042 23 3.81 m/h 0 %
20:00:00 light rain 23.930 23.930 25.153 45 1.59 m/h 144 %
23:00:00 broken clouds 22.540 22.540 23.359 51 4.63 m/h 0 %
19-Oct-2019 (Sat)
02:00:00 broken clouds 22.420 22.420 22.828 46 3.22 m/h 0 %
05:00:00 scattered clouds 21.658 21.658 21.658 47 2.04 m/h 0 %
08:00:00 light rain 24.232 24.232 24.232 40 2.06 m/h 6 %
11:00:00 clear sky 31.450 31.450 31.450 22 1.57 m/h 0 %
14:00:00 clear sky 34.063 34.063 34.063 15 1.57 m/h 0 %
17:00:00 clear sky 31.284 31.284 31.284 17 2.11 m/h 0 %
20:00:00 clear sky 25.851 25.851 25.851 28 2.44 m/h 0 %
23:00:00 clear sky 24.024 24.024 24.024 32 1.93 m/h 0 %
20-Oct-2019 (Sun)
02:00:00 clear sky 22.567 22.567 22.567 36 1.03 m/h 0 %
05:00:00 clear sky 21.408 21.408 21.408 39 0.99 m/h 0 %
08:00:00 clear sky 25.164 25.164 25.164 31 0.51 m/h 0 %
11:00:00 scattered clouds 32.320 32.320 32.320 19 0.81 m/h 0 %
14:00:00 broken clouds 33.563 33.563 33.563 14 2.18 m/h 0 %
17:00:00 overcast clouds 31.111 31.111 31.111 17 2.73 m/h 0 %
20:00:00 broken clouds 26.253 26.253 26.253 25 2.39 m/h 0 %
23:00:00 scattered clouds 23.749 23.749 23.749 30 2.07 m/h 0 %
21-Oct-2019 (Mon)
02:00:00 clear sky 22.426 22.426 22.426 31 1.01 m/h 0 %
05:00:00 clear sky 21.687 21.687 21.687 31 1.98 m/h 0 %
08:00:00 clear sky 24.732 24.732 24.732 26 1.67 m/h 0 %
11:00:00 clear sky 31.925 31.925 31.925 17 1.84 m/h 0 %
14:00:00 clear sky 34.288 34.288 34.288 13 1.49 m/h 0 %
17:00:00 few clouds 30.704 30.704 30.704 16 0.71 m/h 0 %
20:00:00 broken clouds 26.443 26.443 26.443 20 0.98 m/h 0 %
23:00:00 scattered clouds 24.104 24.104 24.104 23 1.96 m/h 0 %
22-Oct-2019 (Tue)
02:00:00 clear sky 22.032 22.032 22.032 27 1.81 m/h 0 %
05:00:00 clear sky 21.076 21.076 21.076 31 2.33 m/h 0 %
08:00:00 clear sky 24.501 24.501 24.501 28 2.34 m/h 0 %
11:00:00 clear sky 32.485 32.485 32.485 17 1.59 m/h 0 %
14:00:00 clear sky 35.119 35.119 35.119 12 0.53 m/h 0 %
17:00:00 clear sky 31.209 31.209 31.209 14 0.54 m/h 0 %
20:00:00 scattered clouds 26.250 26.250 26.250 19 0.88 m/h 0 %
23:00:00 broken clouds 24.712 24.712 24.712 22 1.96 m/h 0 %
23-Oct-2019 (Wed)
02:00:00 broken clouds 22.575 22.575 22.575 30 3.13 m/h 0 %
05:00:00 scattered clouds 21.408 21.408 21.408 31 2.67 m/h 0 %
08:00:00 overcast clouds 24.013 24.013 24.013 26 2.46 m/h 0 %
11:00:00 overcast clouds 31.154 31.154 31.154 15 2.87 m/h 0 %
14:00:00 clear sky 34.831 34.831 34.831 11 1.42 m/h 0 %

Famous Cities (61)